createdAt,value
2018-06-03T00:00:11.248Z,4.80
2018-06-03T00:02:39.764Z,4.33
2018-06-03T00:05:08.307Z,4.70
2018-06-03T00:07:36.816Z,3.70
2018-06-03T00:10:05.460Z,5.23
2018-06-03T00:12:33.998Z,4.40
2018-06-03T00:15:02.562Z,4.77
2018-06-03T00:17:31.066Z,4.70
2018-06-03T00:19:59.659Z,5.03
2018-06-03T00:22:31.910Z,4.13
2018-06-03T00:25:00.498Z,4.50
2018-06-03T00:27:29.052Z,4.20
2018-06-03T00:29:57.608Z,4.27
2018-06-03T00:32:26.158Z,3.83
2018-06-03T00:34:54.664Z,4.10
2018-06-03T00:37:23.226Z,4.43
2018-06-03T00:39:51.786Z,4.27
2018-06-03T00:42:20.497Z,4.17
2018-06-03T00:44:49.096Z,4.33
2018-06-03T00:47:17.599Z,4.07
2018-06-03T00:49:46.177Z,3.47
2018-06-03T00:52:14.723Z,4.53
2018-06-03T00:54:43.341Z,4.67
2018-06-03T00:57:12.057Z,4.33
2018-06-03T00:59:40.606Z,4.37
2018-06-03T01:02:09.112Z,4.63
2018-06-03T01:04:37.669Z,4.33
2018-06-03T01:07:06.216Z,4.23
2018-06-03T01:09:34.774Z,4.40
2018-06-03T01:12:03.350Z,4.33
2018-06-03T01:14:31.927Z,4.27
2018-06-03T01:17:00.500Z,4.50
2018-06-03T01:19:29.088Z,4.00
2018-06-03T01:21:57.668Z,5.10
2018-06-03T01:24:26.203Z,3.90
2018-06-03T01:26:54.754Z,3.90
2018-06-03T01:29:23.281Z,4.03
2018-06-03T01:31:51.844Z,4.47
2018-06-03T01:34:20.371Z,4.10
2018-06-03T01:36:48.957Z,3.90
2018-06-03T01:39:17.485Z,4.20
2018-06-03T01:41:46.034Z,4.13
2018-06-03T01:44:14.626Z,4.17
2018-06-03T01:46:43.182Z,3.60
2018-06-03T01:49:11.694Z,4.03
2018-06-03T01:51:40.255Z,3.73
2018-06-03T01:54:08.793Z,3.73
2018-06-03T01:56:37.353Z,4.30
2018-06-03T01:59:05.950Z,3.83
2018-06-03T02:01:34.473Z,3.00
2018-06-03T02:04:02.984Z,4.00
2018-06-03T02:06:31.528Z,4.07
2018-06-03T02:09:00.142Z,3.80
2018-06-03T02:11:28.696Z,3.83
2018-06-03T02:13:57.203Z,4.30
2018-06-03T02:16:25.746Z,4.70
2018-06-03T02:18:54.272Z,3.97
2018-06-03T02:21:22.831Z,4.80
2018-06-03T02:23:51.416Z,3.67
2018-06-03T02:26:19.929Z,4.30
2018-06-03T02:28:48.486Z,3.93
2018-06-03T02:31:17.005Z,3.67
2018-06-03T02:33:45.536Z,4.10
2018-06-03T02:36:14.072Z,3.10
2018-06-03T02:38:43.013Z,4.50
2018-06-03T02:41:11.567Z,4.10
2018-06-03T02:43:40.146Z,4.40
2018-06-03T02:46:08.697Z,3.70
2018-06-03T02:48:37.243Z,4.00
2018-06-03T02:51:05.784Z,4.10
2018-06-03T02:53:34.325Z,4.40
2018-06-03T02:56:02.862Z,3.97
2018-06-03T02:58:31.418Z,4.00
2018-06-03T03:00:59.945Z,4.40
2018-06-03T03:03:28.514Z,3.90
2018-06-03T03:05:57.054Z,3.07
2018-06-03T03:08:25.604Z,3.90
2018-06-03T03:10:54.157Z,3.97
2018-06-03T03:13:22.706Z,3.73
2018-06-03T03:15:51.220Z,3.80
2018-06-03T03:18:19.745Z,3.33
2018-06-03T03:20:48.307Z,4.50
2018-06-03T03:23:16.871Z,4.57
2018-06-03T03:25:45.376Z,4.53
2018-06-03T03:28:13.931Z,4.03
2018-06-03T03:30:42.480Z,4.37
2018-06-03T03:33:11.070Z,4.33
2018-06-03T03:35:39.653Z,3.87
2018-06-03T03:38:08.232Z,3.90
2018-06-03T03:40:36.802Z,3.50
2018-06-03T03:43:05.393Z,4.30
2018-06-03T03:45:33.952Z,4.83
2018-06-03T03:48:02.525Z,4.20
2018-06-03T03:50:30.745Z,4.60
2018-06-03T03:52:59.258Z,4.43
2018-06-03T03:55:27.798Z,4.73
2018-06-03T03:57:56.379Z,4.10
2018-06-03T04:00:24.948Z,3.90
2018-06-03T04:02:53.476Z,3.77
2018-06-03T04:05:21.979Z,3.90
2018-06-03T04:07:50.484Z,4.47
2018-06-03T04:10:19.042Z,3.70
2018-06-03T04:12:47.607Z,3.70
2018-06-03T04:15:16.144Z,3.77
2018-06-03T04:17:44.686Z,4.17
2018-06-03T04:20:13.228Z,2.97
2018-06-03T04:22:41.848Z,3.73
2018-06-03T04:25:10.360Z,3.23
2018-06-03T04:27:38.965Z,4.13
2018-06-03T04:30:07.517Z,4.10
2018-06-03T04:32:36.119Z,3.80
2018-06-03T04:35:04.723Z,3.50
2018-06-03T04:37:33.283Z,3.53
2018-06-03T04:40:01.882Z,3.63
2018-06-03T04:42:30.408Z,3.10
2018-06-03T04:44:58.981Z,3.33
2018-06-03T04:47:27.583Z,3.80
2018-06-03T04:49:56.088Z,3.33
2018-06-03T04:52:24.619Z,3.33
2018-06-03T04:54:53.173Z,3.57
2018-06-03T04:57:21.702Z,3.90
2018-06-03T04:59:50.245Z,3.77
2018-06-03T05:02:18.798Z,3.53
2018-06-03T05:04:47.418Z,4.27
2018-06-03T05:07:15.960Z,4.10
2018-06-03T05:09:44.480Z,3.47
2018-06-03T05:12:13.079Z,3.63
2018-06-03T05:14:41.655Z,3.90
2018-06-03T05:17:10.213Z,3.50
2018-06-03T05:19:38.797Z,5.03
2018-06-03T05:22:07.345Z,3.80
2018-06-03T05:24:35.860Z,4.07
2018-06-03T05:27:04.422Z,3.90
2018-06-03T05:29:33.012Z,4.17
2018-06-03T05:32:01.630Z,3.37
2018-06-03T05:34:30.136Z,4.10
2018-06-03T05:36:58.735Z,4.20
2018-06-03T05:39:27.316Z,2.83
2018-06-03T05:41:55.890Z,3.37
2018-06-03T05:44:24.485Z,4.10
2018-06-03T05:46:53.022Z,4.10
2018-06-03T05:49:21.558Z,3.50
2018-06-03T05:51:50.075Z,3.90
2018-06-03T05:54:18.626Z,3.53
2018-06-03T05:56:47.147Z,3.13
2018-06-03T05:59:15.725Z,3.77
2018-06-03T06:01:44.297Z,3.40
2018-06-03T06:04:12.826Z,3.40
2018-06-03T06:06:41.392Z,3.30
2018-06-03T06:09:09.935Z,3.17
2018-06-03T06:11:38.445Z,3.23
2018-06-03T06:14:07.018Z,2.70
2018-06-03T06:16:35.548Z,2.90
2018-06-03T06:19:04.118Z,3.00
2018-06-03T06:21:32.646Z,2.93
2018-06-03T06:24:01.211Z,2.40
2018-06-03T06:26:29.791Z,2.30
2018-06-03T06:28:58.325Z,2.47
2018-06-03T06:31:26.831Z,2.40
2018-06-03T06:33:55.428Z,2.40
2018-06-03T06:36:23.985Z,2.47
2018-06-03T06:38:52.536Z,2.10
2018-06-03T06:41:21.073Z,2.10
2018-06-03T06:43:49.618Z,2.90
2018-06-03T06:46:18.224Z,2.40
2018-06-03T06:48:46.731Z,2.70
2018-06-03T06:51:15.316Z,2.23
2018-06-03T06:53:43.836Z,3.07
2018-06-03T06:56:12.408Z,2.50
2018-06-03T06:58:40.912Z,2.77
2018-06-03T07:01:09.526Z,2.00
2018-06-03T07:03:38.056Z,2.03
2018-06-03T07:06:06.599Z,2.67
2018-06-03T07:08:35.162Z,2.10
2018-06-03T07:11:03.746Z,2.23
2018-06-03T07:13:32.334Z,2.40
2018-06-03T07:16:01.669Z,2.43
2018-06-03T07:18:30.308Z,2.37
2018-06-03T07:20:58.854Z,2.17
2018-06-03T07:23:27.393Z,2.83
2018-06-03T07:25:56.862Z,1.83
2018-06-03T07:28:25.343Z,2.30
2018-06-03T07:30:53.879Z,2.43
2018-06-03T07:33:22.462Z,2.43
2018-06-03T07:35:51.117Z,2.53
2018-06-03T07:38:19.748Z,2.30
2018-06-03T07:40:48.275Z,2.10
2018-06-03T07:43:16.828Z,2.23
2018-06-03T07:45:45.008Z,2.70
2018-06-03T07:48:13.577Z,2.67
2018-06-03T07:50:42.167Z,2.00
2018-06-03T07:53:10.386Z,2.43
2018-06-03T07:55:38.944Z,1.93
2018-06-03T07:58:07.536Z,2.50
2018-06-03T08:00:36.044Z,2.40
2018-06-03T08:03:04.638Z,2.30
2018-06-03T08:05:33.146Z,2.03
2018-06-03T08:08:01.669Z,2.50
2018-06-03T08:10:30.269Z,2.50
2018-06-03T08:12:58.794Z,2.20
2018-06-03T08:15:27.312Z,2.30
2018-06-03T08:17:55.866Z,2.40
2018-06-03T08:20:24.367Z,2.10
2018-06-03T08:22:52.983Z,2.20
2018-06-03T08:25:21.505Z,2.20
2018-06-03T08:27:50.101Z,2.33
2018-06-03T08:30:18.613Z,3.17
2018-06-03T08:32:47.128Z,2.10
2018-06-03T08:35:15.677Z,2.40
2018-06-03T08:37:44.212Z,2.57
2018-06-03T08:40:12.759Z,2.67
2018-06-03T08:42:41.309Z,2.50
2018-06-03T08:45:09.849Z,2.30
2018-06-03T08:47:38.670Z,3.17
2018-06-03T08:50:07.228Z,2.77
2018-06-03T08:52:35.790Z,2.83
2018-06-03T08:55:04.304Z,2.23
2018-06-03T08:57:32.855Z,2.40
2018-06-03T09:00:07.843Z,2.47
2018-06-03T09:02:36.978Z,2.37
2018-06-03T09:05:06.467Z,2.27
2018-06-03T09:07:34.991Z,2.33
2018-06-03T09:10:03.644Z,2.40
2018-06-03T09:12:32.221Z,2.47
2018-06-03T09:15:00.798Z,3.00
2018-06-03T09:17:29.424Z,2.80
2018-06-03T09:19:57.937Z,1.90
2018-06-03T09:22:26.493Z,2.23
2018-06-03T09:24:55.074Z,2.03
2018-06-03T09:27:23.651Z,2.10
2018-06-03T09:29:52.173Z,2.63
2018-06-03T09:32:20.704Z,2.53
2018-06-03T09:34:49.265Z,2.30
2018-06-03T09:37:17.950Z,2.10
2018-06-03T09:39:46.485Z,2.50
2018-06-03T09:42:15.028Z,2.27
2018-06-03T09:44:43.543Z,2.23
2018-06-03T09:47:12.107Z,2.77
2018-06-03T09:49:40.672Z,2.10
2018-06-03T09:52:09.253Z,2.00
2018-06-03T09:54:37.813Z,1.90
2018-06-03T09:57:06.364Z,2.10
2018-06-03T09:59:34.905Z,1.90
2018-06-03T10:02:03.452Z,2.63
2018-06-03T10:04:31.993Z,2.20
2018-06-03T10:07:00.560Z,2.00
2018-06-03T10:09:29.147Z,1.83
2018-06-03T10:11:57.720Z,1.97
2018-06-03T10:14:26.305Z,2.00
2018-06-03T10:16:54.865Z,1.67
2018-06-03T10:19:23.448Z,2.07
2018-06-03T10:21:51.992Z,1.60
2018-06-03T10:24:20.505Z,1.90
2018-06-03T10:26:49.197Z,1.80
2018-06-03T10:29:17.748Z,2.13
2018-06-03T10:31:46.330Z,1.80
2018-06-03T10:34:14.843Z,1.77
2018-06-03T10:36:43.381Z,1.77
2018-06-03T10:39:11.989Z,2.57
2018-06-03T10:41:40.472Z,1.63
2018-06-03T10:44:08.716Z,1.73
2018-06-03T10:46:37.274Z,1.70
2018-06-03T10:49:05.834Z,1.83
2018-06-03T10:51:34.463Z,1.50
2018-06-03T10:54:03.759Z,1.57
2018-06-03T10:56:32.384Z,1.73
2018-06-03T10:59:00.954Z,2.03
2018-06-03T11:01:29.504Z,1.57
2018-06-03T11:03:58.072Z,1.70
2018-06-03T11:06:26.618Z,1.57
2018-06-03T11:08:55.213Z,1.70
2018-06-03T11:11:23.731Z,2.03
2018-06-03T11:13:52.267Z,1.73
2018-06-03T11:16:20.821Z,1.67
2018-06-03T11:18:49.408Z,1.50
2018-06-03T11:21:17.980Z,2.00
2018-06-03T11:23:46.530Z,1.63
2018-06-03T11:26:15.077Z,1.40
2018-06-03T11:28:43.624Z,1.47
2018-06-03T11:31:12.184Z,1.43
2018-06-03T11:33:40.739Z,1.80
2018-06-03T11:36:09.260Z,1.50
2018-06-03T11:38:37.838Z,1.40
2018-06-03T11:41:06.498Z,1.30
2018-06-03T11:43:35.029Z,1.43
2018-06-03T11:46:03.636Z,1.13
2018-06-03T11:48:32.138Z,1.40
2018-06-03T11:51:00.666Z,1.37
2018-06-03T11:53:29.234Z,1.20
2018-06-03T11:55:57.779Z,1.40
2018-06-03T11:58:46.441Z,1.70
2018-06-03T12:01:15.035Z,1.50
2018-06-03T12:03:43.604Z,1.33
2018-06-03T12:06:12.142Z,1.70
2018-06-03T12:08:40.762Z,1.50
2018-06-03T12:11:09.282Z,1.20
2018-06-03T12:13:37.866Z,1.50
2018-06-03T12:16:06.479Z,1.30
2018-06-03T12:18:34.988Z,1.30
2018-06-03T12:21:03.546Z,1.73
2018-06-03T12:23:32.110Z,1.40
2018-06-03T12:26:00.660Z,1.47
2018-06-03T12:28:29.280Z,1.40
2018-06-03T12:30:57.783Z,1.27
2018-06-03T12:33:26.354Z,1.60
2018-06-03T12:35:54.913Z,1.47
2018-06-03T12:38:23.591Z,1.70
2018-06-03T12:40:52.169Z,1.20
2018-06-03T12:43:20.715Z,1.60
2018-06-03T12:45:49.276Z,1.43
2018-06-03T12:48:17.804Z,1.20
2018-06-03T12:50:46.332Z,1.60
2018-06-03T12:53:14.893Z,1.33
2018-06-03T12:55:43.443Z,1.30
2018-06-03T12:58:12.011Z,1.20
2018-06-03T13:00:40.532Z,1.60
2018-06-03T13:03:09.064Z,1.70
2018-06-03T13:05:37.630Z,1.50
2018-06-03T13:08:06.429Z,1.60
2018-06-03T13:10:35.019Z,1.30
2018-06-03T13:13:03.516Z,1.40
2018-06-03T13:15:32.112Z,1.27
2018-06-03T13:18:00.657Z,1.50
2018-06-03T13:20:29.264Z,1.30
2018-06-03T13:22:57.818Z,1.50
2018-06-03T13:25:26.312Z,1.20
2018-06-03T13:27:54.883Z,1.60
2018-06-03T13:30:23.417Z,1.27
2018-06-03T13:32:51.976Z,1.20
2018-06-03T13:35:20.550Z,1.23
2018-06-03T13:37:49.081Z,1.40
2018-06-03T13:40:17.701Z,1.07
2018-06-03T13:42:46.200Z,1.40
2018-06-03T13:45:14.782Z,1.60
2018-06-03T13:47:43.318Z,1.43
2018-06-03T13:50:11.825Z,1.20
2018-06-03T13:52:40.348Z,1.30
2018-06-03T13:55:08.921Z,1.47
2018-06-03T13:57:37.547Z,1.10
2018-06-03T14:00:06.148Z,1.50
2018-06-03T14:02:34.738Z,1.33
2018-06-03T14:05:03.324Z,1.23
2018-06-03T14:07:31.875Z,1.37
2018-06-03T14:10:00.444Z,1.20
2018-06-03T14:12:29.050Z,1.10
2018-06-03T14:14:57.622Z,1.20
2018-06-03T14:17:26.428Z,1.60
2018-06-03T14:19:54.978Z,1.37
2018-06-03T14:22:23.552Z,1.23
2018-06-03T14:24:52.065Z,1.03
2018-06-03T14:27:20.637Z,1.10
2018-06-03T14:29:49.214Z,1.30
2018-06-03T14:32:17.751Z,1.00
2018-06-03T14:34:46.284Z,1.03
2018-06-03T14:37:14.816Z,1.43
2018-06-03T14:39:43.355Z,1.20
2018-06-03T14:42:11.900Z,1.20
2018-06-03T14:44:40.491Z,1.10
2018-06-03T14:47:09.092Z,1.40
2018-06-03T14:49:37.646Z,1.00
2018-06-03T14:52:05.841Z,1.00
2018-06-03T14:54:34.389Z,1.40
2018-06-03T14:57:02.935Z,1.17
2018-06-03T14:59:31.452Z,1.40
2018-06-03T15:01:59.987Z,1.40
2018-06-03T15:04:28.562Z,1.43
2018-06-03T15:06:57.176Z,1.20
2018-06-03T15:09:25.697Z,1.50
2018-06-03T15:11:54.257Z,1.47
2018-06-03T15:14:22.880Z,1.50
2018-06-03T15:16:51.401Z,1.23
2018-06-03T15:19:19.977Z,1.20
2018-06-03T15:21:48.541Z,1.20
2018-06-03T15:24:17.088Z,2.17
2018-06-03T15:26:45.709Z,1.20
2018-06-03T15:29:14.236Z,1.30
2018-06-03T15:31:42.806Z,1.43
2018-06-03T15:34:11.333Z,1.60
2018-06-03T15:36:39.884Z,1.17
2018-06-03T15:39:09.037Z,1.77
2018-06-03T15:41:37.621Z,1.20
2018-06-03T15:44:06.234Z,1.20
2018-06-03T15:46:34.972Z,1.40
2018-06-03T15:49:03.550Z,1.37
2018-06-03T15:51:32.138Z,1.50
2018-06-03T15:54:00.662Z,1.30
2018-06-03T15:56:29.186Z,1.40
2018-06-03T15:58:57.749Z,1.80
2018-06-03T16:01:26.402Z,1.50
2018-06-03T16:03:54.920Z,1.50
2018-06-03T16:06:23.475Z,1.67
2018-06-03T16:08:52.046Z,1.40
2018-06-03T16:11:20.613Z,1.30
2018-06-03T16:13:49.134Z,1.50
2018-06-03T16:16:17.735Z,1.77
2018-06-03T16:18:46.253Z,1.20
2018-06-03T16:21:14.810Z,1.90
2018-06-03T16:23:43.423Z,1.50
2018-06-03T16:26:12.039Z,1.53
2018-06-03T16:28:40.522Z,1.77
2018-06-03T16:31:09.064Z,1.50
2018-06-03T16:33:37.619Z,1.83
2018-06-03T16:36:06.157Z,1.57
2018-06-03T16:38:34.761Z,1.70
2018-06-03T16:41:03.327Z,1.83
2018-06-03T16:43:31.926Z,1.60
2018-06-03T16:46:00.486Z,1.80
2018-06-03T16:48:29.011Z,1.70
2018-06-03T16:50:57.591Z,1.80
2018-06-03T16:53:26.151Z,1.77
2018-06-03T16:55:54.713Z,1.73
2018-06-03T16:58:23.336Z,1.60
2018-06-03T17:00:51.877Z,1.70
2018-06-03T17:03:20.424Z,1.90
2018-06-03T17:05:48.956Z,1.40
2018-06-03T17:08:17.525Z,1.80
2018-06-03T17:10:46.099Z,2.30
2018-06-03T17:13:14.660Z,2.17
2018-06-03T17:15:43.145Z,2.00
2018-06-03T17:18:11.730Z,2.03
2018-06-03T17:20:40.338Z,1.77
2018-06-03T17:23:08.858Z,2.00
2018-06-03T17:25:37.422Z,1.87
2018-06-03T17:28:05.997Z,3.13
2018-06-03T17:30:34.513Z,1.70
2018-06-03T17:33:03.024Z,1.63
2018-06-03T17:35:31.660Z,1.90
2018-06-03T17:38:00.193Z,1.77
2018-06-03T17:40:28.742Z,1.70
2018-06-03T17:42:57.325Z,1.97
2018-06-03T17:45:25.845Z,2.00
2018-06-03T17:47:54.364Z,2.13
2018-06-03T17:50:22.944Z,2.00
2018-06-03T17:52:51.470Z,1.97
2018-06-03T17:55:20.011Z,1.97
2018-06-03T17:57:48.552Z,1.63
2018-06-03T18:00:17.064Z,1.57
2018-06-03T18:02:45.617Z,2.00
2018-06-03T18:05:14.202Z,2.07
2018-06-03T18:07:42.780Z,1.97
2018-06-03T18:10:11.315Z,1.67
2018-06-03T18:12:40.060Z,1.83
2018-06-03T18:15:08.933Z,2.20
2018-06-03T18:17:37.466Z,1.90
2018-06-03T18:20:06.034Z,1.40
2018-06-03T18:22:34.577Z,2.10
2018-06-03T18:25:03.104Z,2.03
2018-06-03T18:27:31.626Z,2.30
2018-06-03T18:30:00.185Z,2.50
2018-06-03T18:32:28.768Z,1.80
2018-06-03T18:34:57.247Z,1.87
2018-06-03T18:37:25.826Z,2.00
2018-06-03T18:39:54.398Z,1.50
2018-06-03T18:42:23.009Z,2.30
2018-06-03T18:44:52.445Z,2.20
2018-06-03T18:47:21.017Z,1.90
2018-06-03T18:49:49.541Z,2.10
2018-06-03T18:52:18.091Z,2.10
2018-06-03T18:54:46.600Z,2.47
2018-06-03T18:57:15.116Z,2.30
2018-06-03T18:59:43.695Z,2.10
2018-06-03T19:02:12.257Z,2.00
2018-06-03T19:04:40.827Z,2.17
2018-06-03T19:07:09.402Z,2.73
2018-06-03T19:09:37.917Z,2.20
2018-06-03T19:12:06.411Z,1.97
2018-06-03T19:14:34.902Z,2.10
2018-06-03T19:17:03.514Z,3.10
2018-06-03T19:19:32.162Z,2.30
2018-06-03T19:22:02.185Z,2.20
2018-06-03T19:24:30.698Z,2.07
2018-06-03T19:26:59.233Z,1.90
2018-06-03T19:29:27.792Z,2.20
2018-06-03T19:31:56.286Z,1.90
2018-06-03T19:34:24.905Z,2.33
2018-06-03T19:36:53.490Z,2.70
2018-06-03T19:39:22.006Z,2.50
2018-06-03T19:41:50.524Z,2.00
2018-06-03T19:44:19.045Z,2.13
2018-06-03T19:46:47.633Z,2.33
2018-06-03T19:49:16.253Z,2.60
2018-06-03T19:51:44.825Z,2.17
2018-06-03T19:54:13.555Z,2.80
2018-06-03T19:56:42.080Z,2.03
2018-06-03T19:59:10.664Z,2.50
2018-06-03T20:01:39.176Z,2.53
2018-06-03T20:04:07.692Z,2.50
2018-06-03T20:06:36.269Z,2.13
2018-06-03T20:09:07.644Z,2.37
2018-06-03T20:11:36.372Z,2.70
2018-06-03T20:14:04.897Z,2.17
2018-06-03T20:16:33.462Z,2.53
2018-06-03T20:19:01.989Z,2.70
2018-06-03T20:21:30.547Z,2.47
2018-06-03T20:23:59.117Z,2.20
2018-06-03T20:26:27.644Z,2.30
2018-06-03T20:28:56.127Z,3.20
2018-06-03T20:31:24.752Z,2.23
2018-06-03T20:33:53.266Z,3.00
2018-06-03T20:36:21.849Z,2.50
2018-06-03T20:38:50.430Z,2.70
2018-06-03T20:41:18.955Z,3.40
2018-06-03T20:43:47.504Z,2.40
2018-06-03T20:46:16.075Z,2.37
2018-06-03T20:48:44.662Z,2.67
2018-06-03T20:51:13.186Z,2.27
2018-06-03T20:53:41.718Z,2.50
2018-06-03T20:56:10.274Z,3.07
2018-06-03T20:58:38.840Z,2.63
2018-06-03T21:01:07.412Z,2.77
2018-06-03T21:03:35.925Z,3.43
2018-06-03T21:06:04.784Z,2.80
2018-06-03T21:08:33.306Z,3.20
2018-06-03T21:11:01.843Z,2.90
2018-06-03T21:13:30.401Z,2.77
2018-06-03T21:15:58.963Z,2.90
2018-06-03T21:18:27.506Z,2.70
2018-06-03T21:20:56.073Z,3.03
2018-06-03T21:23:24.621Z,2.83
2018-06-03T21:25:53.177Z,2.87
2018-06-03T21:28:21.709Z,3.07
2018-06-03T21:30:50.246Z,2.90
2018-06-03T21:33:18.815Z,3.20
2018-06-03T21:35:47.314Z,2.70
2018-06-03T21:38:15.863Z,3.10
2018-06-03T21:40:44.437Z,3.30
2018-06-03T21:43:12.967Z,3.43
2018-06-03T21:45:41.520Z,2.50
2018-06-03T21:48:10.058Z,3.63
2018-06-03T21:50:38.584Z,3.53
2018-06-03T21:53:07.177Z,2.57
2018-06-03T21:55:35.708Z,2.93
2018-06-03T21:58:03.930Z,3.33
2018-06-03T22:00:32.485Z,4.07
2018-06-03T22:03:01.034Z,3.37
2018-06-03T22:05:29.558Z,2.70
2018-06-03T22:07:58.124Z,3.20
2018-06-03T22:10:26.708Z,2.77
2018-06-03T22:12:55.247Z,2.80
2018-06-03T22:15:23.753Z,3.10
2018-06-03T22:17:52.322Z,3.63
2018-06-03T22:20:20.856Z,2.87
2018-06-03T22:22:49.460Z,4.97
2018-06-03T22:25:17.976Z,3.60
2018-06-03T22:27:46.534Z,3.00
2018-06-03T22:30:15.102Z,3.23
2018-06-03T22:32:43.680Z,3.33
2018-06-03T22:35:12.229Z,3.97
2018-06-03T22:37:40.765Z,3.70
2018-06-03T22:40:09.280Z,3.43
2018-06-03T22:42:37.802Z,3.50
2018-06-03T22:45:06.341Z,3.20
2018-06-03T22:47:34.901Z,3.80
2018-06-03T22:50:03.501Z,3.50
2018-06-03T22:52:32.087Z,3.77
2018-06-03T22:55:00.609Z,3.43
2018-06-03T22:57:48.461Z,3.37
2018-06-03T23:00:23.189Z,3.57
2018-06-03T23:02:56.990Z,3.23
2018-06-03T23:05:25.564Z,3.67
2018-06-03T23:07:54.194Z,4.33
2018-06-03T23:10:22.770Z,3.57
2018-06-03T23:12:51.349Z,3.47
2018-06-03T23:15:19.892Z,3.40
2018-06-03T23:17:48.417Z,2.93
2018-06-03T23:20:16.940Z,3.43
2018-06-03T23:22:45.523Z,3.70
2018-06-03T23:25:14.095Z,3.40
2018-06-03T23:27:42.672Z,4.23
2018-06-03T23:30:11.167Z,4.00
2018-06-03T23:32:39.697Z,3.20
2018-06-03T23:35:08.282Z,3.60
2018-06-03T23:37:36.852Z,3.63
2018-06-03T23:40:05.753Z,3.77
2018-06-03T23:42:34.290Z,3.73
2018-06-03T23:45:02.817Z,3.70
2018-06-03T23:47:31.332Z,3.67
2018-06-03T23:49:59.877Z,3.70
2018-06-03T23:52:28.428Z,4.17
2018-06-03T23:54:56.932Z,4.10
2018-06-03T23:57:25.565Z,3.23
2018-06-03T23:59:54.108Z,3.90
